createdAt,value
2022-09-14T00:00:16.843Z,2.60
2022-09-14T00:05:18.688Z,2.50
2022-09-14T00:10:20.262Z,2.17
2022-09-14T00:15:22.132Z,3.33
2022-09-14T00:20:23.732Z,2.30
2022-09-14T00:25:26.552Z,2.10
2022-09-14T00:30:28.640Z,2.90
2022-09-14T00:35:30.444Z,2.92
2022-09-14T00:40:32.459Z,2.30
2022-09-14T00:45:34.272Z,2.65
2022-09-14T00:50:36.588Z,2.22
2022-09-14T00:55:39.036Z,2.60
2022-09-14T01:00:40.982Z,2.60
2022-09-14T01:05:50.261Z,2.20
2022-09-14T01:17:30.558Z,2.30
2022-09-14T01:22:40.733Z,2.33
2022-09-14T01:27:45.093Z,2.10
2022-09-14T01:32:57.110Z,2.05
2022-09-14T01:38:10.413Z,2.03
2022-09-14T01:43:18.404Z,2.38
2022-09-14T01:48:27.078Z,2.28
2022-09-14T01:53:49.979Z,2.92
2022-09-14T01:59:20.799Z,2.42
2022-09-14T02:04:36.405Z,2.22
2022-09-14T02:09:39.341Z,2.47
2022-09-14T02:14:43.675Z,2.10
2022-09-14T02:19:53.198Z,2.63
2022-09-14T02:24:55.777Z,2.67
2022-09-14T02:29:58.467Z,2.92
2022-09-14T02:35:20.064Z,2.70
2022-09-14T02:40:37.967Z,3.15
2022-09-14T02:45:58.506Z,3.28
2022-09-14T02:51:28.142Z,3.53
2022-09-14T03:01:31.807Z,3.38
2022-09-14T03:06:33.949Z,3.10
2022-09-14T03:11:36.069Z,3.22
2022-09-14T03:16:39.237Z,2.75
2022-09-14T03:21:41.031Z,2.67
2022-09-14T03:26:42.977Z,2.60
2022-09-14T03:31:44.812Z,2.83
2022-09-14T03:36:46.676Z,2.70
2022-09-14T03:41:48.286Z,3.38
2022-09-14T03:46:50.001Z,3.30
2022-09-14T03:51:52.873Z,2.83
2022-09-14T03:56:56.330Z,3.13
2022-09-14T04:01:58.391Z,3.08
2022-09-14T04:06:59.990Z,2.95
2022-09-14T04:12:01.982Z,2.95
2022-09-14T04:17:04.536Z,2.97
2022-09-14T04:22:06.449Z,3.20
2022-09-14T04:27:08.266Z,2.85
2022-09-14T04:32:10.070Z,3.63
2022-09-14T04:37:12.076Z,3.13
2022-09-14T04:42:13.677Z,3.65
2022-09-14T04:47:15.605Z,3.15
2022-09-14T04:52:18.235Z,3.40
2022-09-14T04:57:19.854Z,3.03
2022-09-14T05:02:21.811Z,3.30
2022-09-14T05:07:23.511Z,3.70
2022-09-14T05:12:25.351Z,3.75
2022-09-14T05:17:26.935Z,2.67
2022-09-14T05:22:28.546Z,3.03
2022-09-14T05:27:30.393Z,3.10
2022-09-14T05:32:32.176Z,3.10
2022-09-14T05:37:33.969Z,2.72
2022-09-14T05:42:36.409Z,3.28
2022-09-14T05:47:39.293Z,2.95
2022-09-14T05:52:41.469Z,2.50
2022-09-14T05:57:43.253Z,3.67
2022-09-14T06:02:49.611Z,3.35
2022-09-14T06:07:53.199Z,2.90
2022-09-14T06:12:55.596Z,4.38
2022-09-14T06:17:57.616Z,3.38
2022-09-14T06:22:59.493Z,2.92
2022-09-14T06:28:01.157Z,3.88
2022-09-14T06:33:04.856Z,3.15
2022-09-14T06:38:07.627Z,3.80
2022-09-14T06:43:09.726Z,3.92
2022-09-14T06:48:11.567Z,3.88
2022-09-14T06:53:13.210Z,3.70
2022-09-14T06:58:14.992Z,4.13
2022-09-14T07:03:16.807Z,3.65
2022-09-14T07:08:18.664Z,3.63
2022-09-14T07:13:20.601Z,3.97
2022-09-14T07:18:23.530Z,4.30
2022-09-14T07:23:25.136Z,5.28
2022-09-14T07:28:27.494Z,4.90
2022-09-14T07:33:29.970Z,5.50
2022-09-14T07:38:50.969Z,8.38
2022-09-14T07:43:56.649Z,7.55
2022-09-14T07:49:00.926Z,6.43
2022-09-14T07:54:03.693Z,8.23
2022-09-14T08:04:27.446Z,6.45
2022-09-14T08:09:29.350Z,4.13
2022-09-14T08:14:30.970Z,4.38
2022-09-14T08:19:32.566Z,6.03
2022-09-14T08:24:34.855Z,5.13
2022-09-14T08:29:36.468Z,5.00
2022-09-14T08:34:38.340Z,4.70
2022-09-14T08:39:39.916Z,6.85
2022-09-14T08:44:44.570Z,6.05
2022-09-14T08:49:48.065Z,5.35
2022-09-14T08:54:53.741Z,6.50
2022-09-14T09:00:00.914Z,5.47
2022-09-14T09:05:32.767Z,6.63
2022-09-14T09:10:38.586Z,5.45
2022-09-14T09:15:49.092Z,5.75
2022-09-14T09:20:54.907Z,5.80
2022-09-14T09:26:27.442Z,5.47
2022-09-14T09:31:36.424Z,5.15
2022-09-14T09:37:04.733Z,4.97
2022-09-14T09:42:13.049Z,5.63
2022-09-14T09:47:14.854Z,6.40
2022-09-14T09:52:17.567Z,4.38
2022-09-14T09:57:36.937Z,4.97
2022-09-14T10:02:39.732Z,5.55
2022-09-14T10:07:50.325Z,5.38
2022-09-14T10:12:55.256Z,6.47
2022-09-14T10:18:11.994Z,5.95
2022-09-14T10:23:19.528Z,4.10
2022-09-14T10:28:29.131Z,3.55
2022-09-14T10:33:31.024Z,3.25
2022-09-14T10:38:44.138Z,3.45
2022-09-14T10:43:52.256Z,3.63
2022-09-14T10:49:13.919Z,3.47
2022-09-14T10:54:33.788Z,3.85
2022-09-14T10:59:44.422Z,5.15
2022-09-14T11:05:19.334Z,5.25
2022-09-14T11:10:38.746Z,5.35
2022-09-14T11:16:04.956Z,5.30
2022-09-14T11:21:21.952Z,5.57
2022-09-14T11:26:31.490Z,5.55
2022-09-14T11:31:40.666Z,5.07
2022-09-14T11:36:54.597Z,5.55
2022-09-14T11:42:00.910Z,4.85
2022-09-14T11:47:05.257Z,4.88
2022-09-14T11:52:23.984Z,4.70
2022-09-14T11:57:33.639Z,4.23
2022-09-14T12:02:38.039Z,4.10
2022-09-14T12:07:39.959Z,4.72
2022-09-14T12:12:44.397Z,4.15
2022-09-14T12:17:46.121Z,4.50
2022-09-14T12:22:50.289Z,3.58
2022-09-14T12:27:52.336Z,4.10
2022-09-14T12:32:53.984Z,3.72
2022-09-14T12:37:55.595Z,3.60
2022-09-14T12:42:57.238Z,3.83
2022-09-14T12:47:58.904Z,3.55
2022-09-14T12:53:24.417Z,3.25
2022-09-14T12:58:42.131Z,2.83
2022-09-14T13:03:48.687Z,2.60
2022-09-14T13:08:55.345Z,2.55
2022-09-14T13:13:58.070Z,2.50
2022-09-14T13:19:02.574Z,2.90
2022-09-14T13:24:18.632Z,2.38
2022-09-14T13:29:21.076Z,2.40
2022-09-14T13:34:38.682Z,2.67
2022-09-14T13:39:41.976Z,2.50
2022-09-14T13:44:46.631Z,2.20
2022-09-14T13:49:50.734Z,2.50
2022-09-14T13:55:14.450Z,2.55
2022-09-14T14:00:22.110Z,2.55
2022-09-14T14:05:30.342Z,2.78
2022-09-14T14:10:36.455Z,2.40
2022-09-14T14:15:38.048Z,2.33
2022-09-14T14:20:40.173Z,1.98
2022-09-14T14:25:48.350Z,2.08
2022-09-14T14:30:50.815Z,1.90
2022-09-14T14:35:54.586Z,2.15
2022-09-14T14:40:58.142Z,1.88
2022-09-14T14:46:01.456Z,1.90
2022-09-14T14:51:03.586Z,2.17
2022-09-14T14:56:05.743Z,1.80
2022-09-14T15:01:08.678Z,1.80
2022-09-14T15:06:23.133Z,1.60
2022-09-14T15:11:24.875Z,2.20
2022-09-14T15:16:26.706Z,1.80
2022-09-14T15:21:28.654Z,1.88
2022-09-14T15:26:30.670Z,1.60
2022-09-14T15:31:36.230Z,1.42
2022-09-14T15:36:52.702Z,1.80
2022-09-14T15:41:55.308Z,1.40
2022-09-14T15:46:57.573Z,1.60
2022-09-14T15:51:59.383Z,1.90
2022-09-14T15:57:01.293Z,1.67
2022-09-14T16:02:03.943Z,1.50
2022-09-14T16:07:09.975Z,1.52
2022-09-14T16:12:13.360Z,1.70
2022-09-14T16:17:15.706Z,1.55
2022-09-14T16:22:17.695Z,1.38
2022-09-14T16:27:19.298Z,1.55
2022-09-14T16:32:22.178Z,1.50
2022-09-14T16:37:24.060Z,1.85
2022-09-14T16:42:25.830Z,2.40
2022-09-14T16:47:27.588Z,1.58
2022-09-14T16:52:29.977Z,1.70
2022-09-14T16:57:31.802Z,2.00
2022-09-14T17:02:33.668Z,2.50
2022-09-14T17:07:35.406Z,2.42
2022-09-14T17:12:37.293Z,2.30
2022-09-14T17:17:39.072Z,2.33
2022-09-14T17:22:40.694Z,2.67
2022-09-14T17:27:42.312Z,2.70
2022-09-14T17:32:43.913Z,2.22
2022-09-14T17:37:45.514Z,2.47
2022-09-14T17:42:47.283Z,3.00
2022-09-14T17:47:49.134Z,2.80
2022-09-14T17:52:51.385Z,2.75
2022-09-14T17:57:53.191Z,2.90
2022-09-14T18:02:55.103Z,2.45
2022-09-14T18:07:57.237Z,2.58
2022-09-14T18:12:59.032Z,2.30
2022-09-14T18:18:00.791Z,2.08
2022-09-14T18:23:02.914Z,2.15
2022-09-14T18:28:05.351Z,2.33
2022-09-14T18:33:06.962Z,2.58
2022-09-14T18:38:09.169Z,2.60
2022-09-14T18:43:11.189Z,2.72
2022-09-14T18:48:14.228Z,2.95
2022-09-14T18:53:16.056Z,2.17
2022-09-14T18:58:17.625Z,2.40
2022-09-14T19:03:19.194Z,2.03
2022-09-14T19:08:23.922Z,2.38
2022-09-14T19:13:25.677Z,2.20
2022-09-14T19:18:27.251Z,2.17
2022-09-14T19:23:28.823Z,2.58
2022-09-14T19:28:30.649Z,2.50
2022-09-14T19:33:32.832Z,2.65
2022-09-14T19:38:34.611Z,2.85
2022-09-14T19:43:36.578Z,3.17
2022-09-14T19:48:39.020Z,2.90
2022-09-14T19:53:41.404Z,3.47
2022-09-14T19:58:46.560Z,3.30
2022-09-14T20:03:49.811Z,4.28
2022-09-14T20:09:00.290Z,4.38
2022-09-14T20:14:04.770Z,4.63
2022-09-14T20:19:09.491Z,5.03
2022-09-14T20:24:18.672Z,3.70
2022-09-14T20:29:23.019Z,2.65
2022-09-14T20:34:25.216Z,2.00
2022-09-14T20:39:27.764Z,2.50
2022-09-14T20:44:29.382Z,1.67
2022-09-14T20:49:31.327Z,1.90
2022-09-14T20:54:33.102Z,1.48
2022-09-14T20:59:35.063Z,1.83
2022-09-14T21:04:36.750Z,1.10
2022-09-14T21:09:39.151Z,1.10
2022-09-14T21:14:42.413Z,1.30
2022-09-14T21:19:44.138Z,1.75
2022-09-14T21:24:45.801Z,1.67
2022-09-14T21:29:49.764Z,2.20
2022-09-14T21:34:51.342Z,2.63
2022-09-14T21:39:54.106Z,2.50
2022-09-14T21:44:55.718Z,2.63
2022-09-14T21:49:57.341Z,3.10
2022-09-14T21:54:58.981Z,2.45
2022-09-14T22:00:00.959Z,2.30
2022-09-14T22:05:03.853Z,2.15
2022-09-14T22:10:06.529Z,1.48
2022-09-14T22:15:09.191Z,1.90
2022-09-14T22:20:11.627Z,1.35
2022-09-14T22:25:13.445Z,1.50
2022-09-14T22:30:15.600Z,0.90
2022-09-14T22:35:17.235Z,1.20
2022-09-14T22:40:19.153Z,1.10
2022-09-14T22:45:20.970Z,0.70
2022-09-14T22:50:22.665Z,0.70
2022-09-14T22:55:25.564Z,0.85
2022-09-14T23:00:27.213Z,0.80
2022-09-14T23:05:29.041Z,0.88
2022-09-14T23:10:31.117Z,0.80
2022-09-14T23:15:37.528Z,0.70
2022-09-14T23:20:40.644Z,0.80
2022-09-14T23:25:42.474Z,0.90
2022-09-14T23:30:52.332Z,0.60
2022-09-14T23:35:54.446Z,0.55
2022-09-14T23:40:58.465Z,0.75
2022-09-14T23:46:00.249Z,0.68
2022-09-14T23:51:05.448Z,0.90
2022-09-14T23:56:07.993Z,0.90
